Time;durP1;ratioP1;P1;durP2;ratioP2;P2;SDS_P1;SDS_P2;PMS_P1;PMS_P2;Temp;Humidity;BMP_temperature;BMP_pressure;BME280_temperature;BME280_humidity;BME280_pressure;Samples;Min_cycle;Max_cycle;Signal;HPM_P1;HPM_P2
2022/12/28 00:02:02;;;;;;;;;;;5.90;99.90;;;;;;5051393;28;19916;-55
2022/12/28 00:04:28;;;;;;;;;;;5.90;99.90;;;;;;5051235;28;19913;-54
2022/12/28 00:06:53;;;;;;;;;;;5.90;99.90;;;;;;5051013;28;19959;-51
2022/12/28 00:09:19;;;;;;;;;;;5.90;99.90;;;;;;5050982;28;19908;-54
2022/12/28 00:11:45;;;;;;;;;;;6.00;99.90;;;;;;5051161;28;19913;-51
2022/12/28 00:14:10;;;;;;;;;;;6.00;99.90;;;;;;5051214;28;19909;-54
2022/12/28 00:16:37;;;;;;;;;;;6.00;99.90;;;;;;5051078;28;19909;-54
2022/12/28 00:19:04;;;;;;;;;;;6.10;99.90;;;;;;5051016;28;19909;-54
2022/12/28 00:21:30;;;;;;;;;;;6.10;99.90;;;;;;5050988;28;20359;-55
2022/12/28 00:23:57;;;;;;;;;;;6.10;99.90;;;;;;5051007;28;19912;-54
2022/12/28 00:26:22;;;;;;;;;;;6.10;99.90;;;;;;5050850;28;19958;-52
2022/12/28 00:28:48;;;;;;;;;;;6.00;99.90;;;;;;5050982;28;19909;-54
2022/12/28 00:31:14;;;;;;;;;;;6.00;99.90;;;;;;5049761;28;19990;-51
2022/12/28 00:33:40;;;;;;;;;;;5.90;99.90;;;;;;5049755;28;19916;-54
2022/12/28 00:36:06;;;;;;;;;;;5.80;99.90;;;;;;5049715;28;19959;-52
2022/12/28 00:38:33;;;;;;;;;;;5.70;99.90;;;;;;5049060;28;20010;-54
2022/12/28 00:40:59;;;;;;;;;;;5.70;99.90;;;;;;5049572;28;19909;-56
2022/12/28 00:43:25;;;;;;;;;;;5.70;99.90;;;;;;5049738;28;19919;-54
2022/12/28 00:45:50;;;;;;;;;;;5.60;99.90;;;;;;5055051;28;19920;-51
2022/12/28 00:48:16;;;;;;;;;;;5.60;99.90;;;;;;5054665;28;19978;-54
2022/12/28 00:50:42;;;;;;;;;;;5.60;99.90;;;;;;5053494;28;19909;-52
2022/12/28 00:53:08;;;;;;;;;;;5.60;99.90;;;;;;5054844;28;19908;-52
2022/12/28 00:55:34;;;;;;;;;;;5.60;99.90;;;;;;5054882;28;19916;-53
2022/12/28 00:58:00;;;;;;;;;;;5.60;99.90;;;;;;5054712;28;19932;-52
2022/12/28 01:00:26;;;;;;;;;;;5.60;99.90;;;;;;5054608;28;19908;-56
2022/12/28 01:02:52;;;;;;;;;;;5.60;99.90;;;;;;5054656;28;19909;-55
2022/12/28 01:05:18;;;;;;;;;;;5.60;99.90;;;;;;5054990;28;19913;-54
2022/12/28 01:07:43;;;;;;;;;;;5.70;99.90;;;;;;5054330;28;19917;-50
2022/12/28 01:10:09;;;;;;;;;;;5.70;99.90;;;;;;5054411;28;19909;-54
2022/12/28 01:12:35;;;;;;;;;;;5.70;99.90;;;;;;5054635;28;19908;-52
2022/12/28 01:15:01;;;;;;;;;;;5.60;99.90;;;;;;5054579;28;19913;-53
2022/12/28 01:17:27;;;;;;;;;;;5.60;99.90;;;;;;5054099;28;20002;-51
2022/12/28 01:19:53;;;;;;;;;;;5.60;99.90;;;;;;5052858;28;19908;-51
2022/12/28 01:22:18;;;;;;;;;;;5.60;99.90;;;;;;5053038;28;20337;-55
2022/12/28 01:24:44;;;;;;;;;;;5.50;99.90;;;;;;5052992;28;19919;-53
2022/12/28 01:27:10;;;;;;;;;;;5.60;99.90;;;;;;5052672;28;19991;-52
2022/12/28 01:29:37;;;;;;;;;;;5.50;99.90;;;;;;5054173;28;19909;-53
2022/12/28 01:32:03;;;;;;;;;;;5.50;99.90;;;;;;5054290;28;19913;-52
2022/12/28 01:34:29;;;;;;;;;;;5.50;99.90;;;;;;5054243;28;20430;-53
2022/12/28 01:36:54;;;;;;;;;;;5.60;99.90;;;;;;5053732;28;19952;-54
2022/12/28 01:39:20;;;;;;;;;;;5.60;99.90;;;;;;5054336;28;20284;-53
2022/12/28 01:41:45;;;;;;;;;;;5.70;99.90;;;;;;5052711;28;20357;-51
2022/12/28 01:44:11;;;;;;;;;;;5.70;99.90;;;;;;5053722;28;19923;-50
2022/12/28 01:46:37;;;;;;;;;;;5.70;99.90;;;;;;5053724;28;20349;-53
2022/12/28 01:49:12;;;;;;;;;;;5.70;99.90;;;;;;5053505;28;19942;-54
2022/12/28 01:51:45;;;;;;;;;;;5.70;99.90;;;;;;5053772;28;19935;-50
2022/12/28 01:54:10;;;;;;;;;;;5.80;99.90;;;;;;5053842;28;19939;-53
2022/12/28 01:56:36;;;;;;;;;;;5.80;99.90;;;;;;5052415;28;20110;-51
2022/12/28 01:59:02;;;;;;;;;;;5.80;99.90;;;;;;5052191;28;19956;-52
2022/12/28 02:01:28;;;;;;;;;;;5.90;99.90;;;;;;5053658;28;20250;-51
2022/12/28 02:03:54;;;;;;;;;;;6.00;99.90;;;;;;5053486;28;19949;-54
2022/12/28 02:06:19;;;;;;;;;;;6.00;99.90;;;;;;5053330;28;19908;-54
2022/12/28 02:08:52;;;;;;;;;;;6.10;99.90;;;;;;5053253;28;20400;-53
2022/12/28 02:11:19;;;;;;;;;;;6.10;99.90;;;;;;5053556;28;19908;-52
2022/12/28 02:13:46;;;;;;;;;;;6.20;99.90;;;;;;5052080;28;20388;-55
2022/12/28 02:16:12;;;;;;;;;;;6.20;99.90;;;;;;5053869;28;19909;-55
2022/12/28 02:18:42;;;;;;;;;;;6.20;99.90;;;;;;5052910;28;19915;-53
2022/12/28 02:21:08;;;;;;;;;;;6.30;99.90;;;;;;5053313;28;19931;-53
2022/12/28 02:23:37;;;;;;;;;;;6.20;99.90;;;;;;5053068;28;19924;-54
2022/12/28 02:26:02;;;;;;;;;;;6.30;99.90;;;;;;5053187;28;19908;-53
2022/12/28 02:28:46;;;;;;;;;;;6.30;99.90;;;;;;5052749;28;19916;-54
2022/12/28 02:31:32;;;;;;;;;;;6.40;99.90;;;;;;5051645;28;20273;-54
2022/12/28 02:34:05;;;;;;;;;;;6.40;99.90;;;;;;5037781;28;19909;-54
2022/12/28 02:36:35;;;;;;;;;;;6.40;99.90;;;;;;5052920;28;20328;-54
2022/12/28 02:39:04;;;;;;;;;;;6.50;99.90;;;;;;5052861;28;19915;-54
2022/12/28 02:41:30;;;;;;;;;;;6.50;99.90;;;;;;5052703;28;19908;-54
2022/12/28 02:43:57;;;;;;;;;;;6.50;99.90;;;;;;5051336;28;19913;-52
2022/12/28 02:51:59;;;;;;;;;;;6.60;99.90;;;;;;5051373;28;19986;-54
2022/12/28 02:57:23;;;;;;;;;;;6.80;99.90;;;;;;5052435;28;19919;-53
2022/12/28 03:00:06;;;;;;;;;;;6.80;99.90;;;;;;5051001;28;19920;-54
2022/12/28 03:02:50;;;;;;;;;;;6.80;99.90;;;;;;5052474;28;20270;-53
2022/12/28 03:08:33;;;;;;;;;;;6.80;99.90;;;;;;5052394;28;19908;-53
2022/12/28 03:11:03;;;;;;;;;;;6.80;99.90;;;;;;5052289;28;19915;-52
2022/12/28 03:13:44;;;;;;;;;;;6.90;99.90;;;;;;5052307;28;19999;-51
2022/12/28 03:16:18;;;;;;;;;;;6.90;99.90;;;;;;5052206;28;19909;-53
2022/12/28 03:32:42;;;;;;;;;;;7.00;99.90;;;;;;5050905;28;19909;-54
2022/12/28 03:35:07;;;;;;;;;;;7.10;99.90;;;;;;5050711;28;19915;-54
2022/12/28 03:37:37;;;;;;;;;;;7.10;99.90;;;;;;5050292;28;19912;-53
2022/12/28 03:40:14;;;;;;;;;;;7.20;99.90;;;;;;5050306;28;20353;-54
2022/12/28 03:45:43;;;;;;;;;;;7.20;99.90;;;;;;5050392;28;19912;-54
2022/12/28 03:48:09;;;;;;;;;;;7.20;99.90;;;;;;5049881;28;19912;-53
2022/12/28 03:50:36;;;;;;;;;;;7.30;99.90;;;;;;5050109;28;19915;-53
2022/12/28 03:53:02;;;;;;;;;;;7.30;99.90;;;;;;5051559;28;19909;-54
2022/12/28 03:55:29;;;;;;;;;;;7.30;99.90;;;;;;5051647;28;19962;-53
2022/12/28 03:57:55;;;;;;;;;;;7.40;99.90;;;;;;5049995;28;19912;-54
2022/12/28 04:00:24;;;;;;;;;;;7.30;99.90;;;;;;5050043;28;19958;-53
2022/12/28 04:02:52;;;;;;;;;;;7.40;99.90;;;;;;5049980;28;19920;-54
2022/12/28 04:05:20;;;;;;;;;;;7.40;99.90;;;;;;5050051;28;19913;-54
2022/12/28 04:07:47;;;;;;;;;;;7.40;99.90;;;;;;5049714;28;20385;-55
2022/12/28 04:10:12;;;;;;;;;;;7.50;99.90;;;;;;5050980;28;19909;-51
2022/12/28 04:12:38;;;;;;;;;;;7.50;99.90;;;;;;5049722;28;19909;-56
2022/12/28 04:15:22;;;;;;;;;;;7.50;99.90;;;;;;5049930;28;19908;-55
2022/12/28 04:17:48;;;;;;;;;;;7.60;99.90;;;;;;5049498;28;19909;-53
2022/12/28 04:20:13;;;;;;;;;;;7.60;99.90;;;;;;5049331;28;20396;-53
2022/12/28 04:22:39;;;;;;;;;;;7.70;99.90;;;;;;5049925;28;19905;-55
2022/12/28 04:25:05;;;;;;;;;;;7.70;99.90;;;;;;5049770;28;19912;-51
2022/12/28 04:27:32;;;;;;;;;;;7.70;99.90;;;;;;5049523;28;19916;-53
2022/12/28 04:30:03;;;;;;;;;;;7.80;99.90;;;;;;5049555;28;20269;-52
2022/12/28 04:32:32;;;;;;;;;;;7.70;99.90;;;;;;5049785;28;19944;-54
2022/12/28 04:34:58;;;;;;;;;;;7.70;99.90;;;;;;5049737;28;20055;-53
2022/12/28 04:37:24;;;;;;;;;;;7.80;99.90;;;;;;5049315;28;19954;-54
2022/12/28 04:39:50;;;;;;;;;;;7.70;99.90;;;;;;5050689;28;20296;-53
2022/12/28 04:42:15;;;;;;;;;;;7.80;99.90;;;;;;5050827;28;19909;-54
2022/12/28 04:44:41;;;;;;;;;;;7.90;99.90;;;;;;5051070;28;19966;-51
2022/12/28 04:47:07;;;;;;;;;;;7.90;99.90;;;;;;5050646;28;19909;-54
2022/12/28 04:49:33;;;;;;;;;;;7.90;99.90;;;;;;5050636;28;19947;-53
2022/12/28 04:51:59;;;;;;;;;;;7.90;99.90;;;;;;5050849;28;19909;-53
2022/12/28 04:54:24;;;;;;;;;;;7.90;99.90;;;;;;5050829;28;19959;-53
2022/12/28 04:56:50;;;;;;;;;;;7.80;99.90;;;;;;5050455;28;19909;-54
2022/12/28 04:59:16;;;;;;;;;;;7.80;99.90;;;;;;5051097;28;19909;-54
2022/12/28 05:01:41;;;;;;;;;;;7.70;99.90;;;;;;5050759;28;19923;-55
2022/12/28 05:04:07;;;;;;;;;;;7.80;99.90;;;;;;5050897;28;19919;-54
2022/12/28 05:06:33;;;;;;;;;;;7.80;99.90;;;;;;5050640;28;19966;-52
2022/12/28 05:08:59;;;;;;;;;;;7.80;99.90;;;;;;5050424;28;19909;-54
2022/12/28 05:11:26;;;;;;;;;;;8.00;99.90;;;;;;5050495;28;19932;-53
2022/12/28 05:13:52;;;;;;;;;;;8.10;99.90;;;;;;5050864;28;19905;-53
2022/12/28 05:16:19;;;;;;;;;;;8.10;99.90;;;;;;5050705;28;19909;-53
2022/12/28 05:18:45;;;;;;;;;;;8.10;99.90;;;;;;5050639;28;20348;-54
2022/12/28 05:21:21;;;;;;;;;;;8.10;99.90;;;;;;5050670;28;19953;-50
2022/12/28 05:23:47;;;;;;;;;;;8.10;99.90;;;;;;5050584;28;19913;-53
2022/12/28 05:26:15;;;;;;;;;;;8.10;99.90;;;;;;5050486;28;20473;-50
2022/12/28 05:28:40;;;;;;;;;;;8.10;99.90;;;;;;5050152;28;19916;-53
2022/12/28 05:31:08;;;;;;;;;;;8.10;99.90;;;;;;5053439;28;19908;-53
2022/12/28 05:33:34;;;;;;;;;;;8.10;99.90;;;;;;5054242;28;19951;-53
2022/12/28 05:36:03;;;;;;;;;;;8.20;99.90;;;;;;5054199;28;20289;-54
2022/12/28 05:38:29;;;;;;;;;;;8.30;99.90;;;;;;5053732;28;20388;-53
2022/12/28 05:40:54;;;;;;;;;;;8.30;99.90;;;;;;5054083;28;19909;-53
2022/12/28 05:43:20;;;;;;;;;;;8.30;99.90;;;;;;5053928;28;19912;-53
2022/12/28 05:45:45;;;;;;;;;;;8.40;99.90;;;;;;5054046;28;20007;-55
2022/12/28 05:48:11;;;;;;;;;;;8.30;99.90;;;;;;5053607;28;19912;-56
2022/12/28 05:50:36;;;;;;;;;;;8.40;99.90;;;;;;5053669;28;19962;-53
2022/12/28 05:53:02;;;;;;;;;;;8.40;99.90;;;;;;5053761;28;19909;-54
2022/12/28 05:55:28;;;;;;;;;;;8.30;99.90;;;;;;5053965;28;19912;-52
2022/12/28 05:57:54;;;;;;;;;;;8.30;99.90;;;;;;5053672;28;19974;-53
2022/12/28 06:00:20;;;;;;;;;;;8.20;99.90;;;;;;5053611;28;20297;-53
2022/12/28 06:02:46;;;;;;;;;;;8.10;99.90;;;;;;5053753;28;19913;-53
2022/12/28 06:05:13;;;;;;;;;;;8.10;99.90;;;;;;5053566;28;19912;-54
2022/12/28 06:07:38;;;;;;;;;;;8.10;99.90;;;;;;5053320;28;20287;-55
2022/12/28 06:10:04;;;;;;;;;;;8.10;99.90;;;;;;5053207;28;19999;-52
2022/12/28 06:12:30;;;;;;;;;;;8.10;99.90;;;;;;5053711;28;19919;-53
2022/12/28 06:14:55;;;;;;;;;;;8.10;99.90;;;;;;5053498;28;20266;-55
2022/12/28 06:17:21;;;;;;;;;;;8.00;99.90;;;;;;5053115;28;19999;-55
2022/12/28 06:19:47;;;;;;;;;;;8.00;99.90;;;;;;5053082;28;20377;-55
2022/12/28 06:22:12;;;;;;;;;;;8.00;99.90;;;;;;5053257;28;19908;-54
2022/12/28 06:24:38;;;;;;;;;;;8.00;99.90;;;;;;5053190;28;20030;-53
2022/12/28 06:27:03;;;;;;;;;;;8.00;99.90;;;;;;5052887;28;21360;-55
2022/12/28 06:29:29;;;;;;;;;;;8.00;99.90;;;;;;5053198;28;20286;-56
2022/12/28 06:31:55;;;;;;;;;;;8.00;99.90;;;;;;5053264;28;19909;-53
2022/12/28 06:34:20;;;;;;;;;;;8.00;99.90;;;;;;5053153;28;20114;-52
2022/12/28 06:36:48;;;;;;;;;;;8.00;99.90;;;;;;5052700;28;19999;-54
2022/12/28 06:39:14;;;;;;;;;;;8.10;99.90;;;;;;5052702;28;19944;-54
2022/12/28 06:41:40;;;;;;;;;;;8.10;99.90;;;;;;5052371;28;20434;-54
2022/12/28 06:44:07;;;;;;;;;;;8.10;99.90;;;;;;5052837;28;19956;-56
2022/12/28 06:46:32;;;;;;;;;;;8.10;99.90;;;;;;5052760;28;20003;-54
2022/12/28 06:48:58;;;;;;;;;;;8.10;99.90;;;;;;5052479;28;19958;-52
2022/12/28 06:51:28;;;;;;;;;;;8.20;99.90;;;;;;5052664;28;19966;-52
2022/12/28 06:53:54;;;;;;;;;;;8.10;99.90;;;;;;5052668;28;19912;-52
2022/12/28 06:56:21;;;;;;;;;;;8.20;99.90;;;;;;5052459;28;19915;-54
2022/12/28 06:58:47;;;;;;;;;;;8.10;99.90;;;;;;5052315;28;20389;-54
2022/12/28 07:01:19;;;;;;;;;;;8.10;99.90;;;;;;5052985;28;20022;-54
2022/12/28 07:03:45;;;;;;;;;;;8.10;99.90;;;;;;5052500;28;19912;-53
2022/12/28 07:06:11;;;;;;;;;;;8.10;99.90;;;;;;5052373;28;19908;-53
2022/12/28 07:08:37;;;;;;;;;;;8.20;99.90;;;;;;5051977;28;19909;-52
2022/12/28 07:11:04;;;;;;;;;;;8.20;99.90;;;;;;5052483;28;20233;-55
2022/12/28 07:13:30;;;;;;;;;;;8.20;99.90;;;;;;5051162;28;20353;-54
2022/12/28 07:15:56;;;;;;;;;;;8.10;99.90;;;;;;5052319;28;19916;-51
2022/12/28 07:18:21;;;;;;;;;;;8.10;99.90;;;;;;5052009;28;19913;-53
2022/12/28 07:20:47;;;;;;;;;;;8.10;99.90;;;;;;5051932;28;19908;-55
2022/12/28 07:23:13;;;;;;;;;;;8.10;99.90;;;;;;5052069;28;19912;-51
2022/12/28 07:25:39;;;;;;;;;;;8.10;99.90;;;;;;5052196;28;19912;-52
2022/12/28 07:28:04;;;;;;;;;;;8.20;99.90;;;;;;5051927;28;19909;-54
2022/12/28 07:30:30;;;;;;;;;;;8.20;99.90;;;;;;5051834;28;20308;-55
2022/12/28 07:32:55;;;;;;;;;;;8.10;99.90;;;;;;5051939;28;19908;-52
2022/12/28 07:35:21;;;;;;;;;;;8.10;99.90;;;;;;5051818;28;19908;-54
2022/12/28 07:37:46;;;;;;;;;;;8.20;99.90;;;;;;5051606;28;20254;-55
2022/12/28 07:40:12;;;;;;;;;;;8.20;99.90;;;;;;5051771;28;19908;-54
2022/12/28 07:42:38;;;;;;;;;;;8.20;99.90;;;;;;5051877;28;19909;-54
2022/12/28 07:45:07;;;;;;;;;;;8.20;99.90;;;;;;5051839;28;19931;-54
2022/12/28 07:47:33;;;;;;;;;;;8.30;99.90;;;;;;5051440;28;19917;-54
2022/12/28 07:49:59;;;;;;;;;;;8.30;99.90;;;;;;5051296;28;20387;-54
2022/12/28 07:52:24;;;;;;;;;;;8.20;99.90;;;;;;5051593;28;19916;-54
2022/12/28 07:54:50;;;;;;;;;;;8.20;99.90;;;;;;5051108;28;20403;-55
2022/12/28 07:57:15;;;;;;;;;;;8.30;99.90;;;;;;5051335;28;20000;-55
2022/12/28 07:59:41;;;;;;;;;;;8.30;99.90;;;;;;5050117;28;19962;-53
2022/12/28 08:02:07;;;;;;;;;;;8.30;99.90;;;;;;5051487;28;20353;-54
2022/12/28 08:04:33;;;;;;;;;;;8.40;99.90;;;;;;5051314;28;19916;-54
2022/12/28 08:06:58;;;;;;;;;;;8.40;99.90;;;;;;5051566;28;19986;-53
2022/12/28 08:09:24;;;;;;;;;;;8.40;99.90;;;;;;5051301;28;19909;-53
2022/12/28 08:11:49;;;;;;;;;;;8.50;99.90;;;;;;5051535;28;20369;-52
2022/12/28 08:14:15;;;;;;;;;;;8.60;99.90;;;;;;5051404;28;19909;-53
2022/12/28 08:16:41;;;;;;;;;;;8.60;99.90;;;;;;5051230;28;19940;-51
2022/12/28 08:19:07;;;;;;;;;;;8.70;99.90;;;;;;5050884;28;20357;-53
2022/12/28 08:21:35;;;;;;;;;;;8.70;99.90;;;;;;5051327;28;19913;-54
2022/12/28 08:24:01;;;;;;;;;;;8.80;99.90;;;;;;5051130;28;19958;-55
2022/12/28 08:26:28;;;;;;;;;;;8.80;99.90;;;;;;5050926;28;19913;-54
2022/12/28 08:28:54;;;;;;;;;;;8.90;99.90;;;;;;5050950;28;19919;-54
2022/12/28 08:31:24;;;;;;;;;;;8.90;99.90;;;;;;5051099;28;20354;-53
2022/12/28 08:33:51;;;;;;;;;;;8.90;99.90;;;;;;5050995;28;20003;-54
2022/12/28 08:36:16;;;;;;;;;;;8.90;99.90;;;;;;5050880;28;19915;-56
2022/12/28 08:38:43;;;;;;;;;;;8.90;99.90;;;;;;5050714;28;19908;-55
2022/12/28 08:41:13;;;;;;;;;;;9.00;99.90;;;;;;5050998;28;19908;-54
2022/12/28 08:43:39;;;;;;;;;;;9.00;99.90;;;;;;5051385;28;19908;-54
2022/12/28 08:46:15;;;;;;;;;;;9.10;99.90;;;;;;5050966;28;19908;-54
2022/12/28 08:48:41;;;;;;;;;;;9.10;99.90;;;;;;5061765;22;19975;-60
2022/12/28 08:51:08;;;;;;;;;;;9.10;99.90;;;;;;5050934;28;19909;-60
2022/12/28 08:53:34;;;;;;;;;;;9.10;99.90;;;;;;5051003;28;19952;-60
2022/12/28 08:56:03;;;;;;;;;;;9.20;99.90;;;;;;5050826;28;19951;-60
2022/12/28 08:58:29;;;;;;;;;;;9.20;99.90;;;;;;5050602;28;20380;-60
2022/12/28 09:00:55;;;;;;;;;;;9.20;99.90;;;;;;5050929;28;19959;-60
2022/12/28 09:03:20;;;;;;;;;;;9.20;99.90;;;;;;5051105;28;19962;-60
2022/12/28 09:05:46;;;;;;;;;;;9.30;99.90;;;;;;5053393;28;20308;-60
2022/12/28 09:08:11;;;;;;;;;;;9.30;99.90;;;;;;5054522;28;19908;-60
2022/12/28 09:10:37;;;;;;;;;;;9.30;99.90;;;;;;5054521;28;19913;-60
2022/12/28 09:13:02;;;;;;;;;;;9.40;99.90;;;;;;5054732;28;19909;-60
2022/12/28 09:15:28;;;;;;;;;;;9.40;99.90;;;;;;5054731;28;19948;-60
2022/12/28 09:17:54;;;;;;;;;;;9.40;99.90;;;;;;5054422;28;19955;-60
2022/12/28 09:20:19;;;;;;;;;;;9.40;99.90;;;;;;5054307;28;19918;-60
2022/12/28 09:22:45;;;;;;;;;;;9.40;99.90;;;;;;5054592;28;19912;-60
2022/12/28 09:25:10;;;;;;;;;;;9.40;99.90;;;;;;5054282;28;20364;-60
2022/12/28 09:27:36;;;;;;;;;;;9.50;99.90;;;;;;5054294;28;19995;-60
2022/12/28 09:30:02;;;;;;;;;;;9.50;99.90;;;;;;5054162;28;20419;-60
2022/12/28 09:32:27;;;;;;;;;;;9.50;99.90;;;;;;5054346;28;19912;-60
2022/12/28 09:34:53;;;;;;;;;;;9.60;99.90;;;;;;5054282;28;19962;-60
2022/12/28 09:37:19;;;;;;;;;;;9.60;99.90;;;;;;5053913;28;19913;-60
2022/12/28 09:39:44;;;;;;;;;;;9.60;99.90;;;;;;5053942;28;19908;-60
2022/12/28 09:42:15;;;;;;;;;;;9.70;99.90;;;;;;5054134;28;19908;-60
2022/12/28 09:44:41;;;;;;;;;;;9.70;99.90;;;;;;5054187;28;19920;-60
2022/12/28 09:47:11;;;;;;;;;;;9.70;99.90;;;;;;5053913;28;20285;-61
2022/12/28 09:49:55;;;;;;;;;;;9.70;99.90;;;;;;5053733;28;19983;-61
2022/12/28 09:52:26;;;;;;;;;;;9.70;99.90;;;;;;5053845;28;19916;-61
2022/12/28 09:54:52;;;;;;;;;;;9.70;99.90;;;;;;5053965;28;19908;-60
2022/12/28 09:57:18;;;;;;;;;;;9.80;99.90;;;;;;5053613;28;19912;-60
2022/12/28 09:59:47;;;;;;;;;;;9.80;99.90;;;;;;5053783;28;19909;-63
2022/12/28 10:02:17;;;;;;;;;;;9.80;99.90;;;;;;5053709;28;19934;-60
2022/12/28 10:04:43;;;;;;;;;;;9.90;99.90;;;;;;5053463;28;19912;-61
2022/12/28 10:07:09;;;;;;;;;;;9.90;99.90;;;;;;5053750;28;19999;-60
2022/12/28 10:09:35;;;;;;;;;;;9.90;99.90;;;;;;5053627;28;19909;-61
2022/12/28 10:12:11;;;;;;;;;;;10.00;99.90;;;;;;5053608;28;20004;-62
2022/12/28 10:14:37;;;;;;;;;;;10.00;99.90;;;;;;5053561;28;19908;-61
2022/12/28 10:17:05;;;;;;;;;;;10.00;99.90;;;;;;5052261;28;19962;-61
2022/12/28 10:19:30;;;;;;;;;;;10.00;99.90;;;;;;5053095;28;19912;-62
2022/12/28 10:21:59;;;;;;;;;;;10.00;99.90;;;;;;5053414;28;19968;-62
2022/12/28 10:24:25;;;;;;;;;;;10.00;99.90;;;;;;5053777;28;19939;-60
2022/12/28 10:26:51;;;;;;;;;;;10.10;99.90;;;;;;5053141;28;19909;-60
2022/12/28 10:29:18;;;;;;;;;;;10.10;99.90;;;;;;5052988;28;19915;-61
2022/12/28 10:31:54;;;;;;;;;;;10.10;99.90;;;;;;5053142;28;19908;-61
2022/12/28 10:34:21;;;;;;;;;;;10.10;99.90;;;;;;5053064;28;19908;-60
2022/12/28 10:36:47;;;;;;;;;;;10.10;99.90;;;;;;5053077;28;20242;-62
2022/12/28 10:39:15;;;;;;;;;;;10.10;99.90;;;;;;5052831;28;19990;-62
2022/12/28 10:41:41;;;;;;;;;;;10.10;99.90;;;;;;5052938;28;20278;-62
2022/12/28 10:44:13;;;;;;;;;;;10.10;99.90;;;;;;5052917;28;19913;-61
2022/12/28 10:46:48;;;;;;;;;;;10.10;99.90;;;;;;5053244;28;19909;-62
2022/12/28 10:49:14;;;;;;;;;;;10.10;99.90;;;;;;5052373;28;19919;-61
2022/12/28 10:51:56;;;;;;;;;;;10.20;99.90;;;;;;5052823;28;19912;-62
2022/12/28 10:54:24;;;;;;;;;;;10.20;99.90;;;;;;5052841;28;20331;-60
2022/12/28 10:56:50;;;;;;;;;;;10.20;99.90;;;;;;5052586;28;19934;-61
2022/12/28 10:59:26;;;;;;;;;;;10.20;99.90;;;;;;5052399;28;20398;-62
2022/12/28 11:01:53;;;;;;;;;;;10.20;99.90;;;;;;5052677;28;19909;-60
2022/12/28 11:04:19;;;;;;;;;;;10.30;99.90;;;;;;5052528;28;19922;-62
2022/12/28 11:06:53;;;;;;;;;;;10.40;99.90;;;;;;5052459;28;19916;-61
2022/12/28 11:09:21;;;;;;;;;;;10.40;99.90;;;;;;5052076;28;19915;-61
2022/12/28 11:11:47;;;;;;;;;;;10.40;99.90;;;;;;5052418;28;20372;-62
2022/12/28 11:14:22;;;;;;;;;;;10.50;99.90;;;;;;5052530;28;19909;-62
2022/12/28 11:16:47;;;;;;;;;;;10.50;99.90;;;;;;5052202;28;20327;-62
2022/12/28 11:19:13;;;;;;;;;;;10.40;99.90;;;;;;5052448;28;19909;-62
2022/12/28 11:21:40;;;;;;;;;;;10.50;99.90;;;;;;5052250;28;20392;-62
2022/12/28 11:24:06;;;;;;;;;;;10.50;99.90;;;;;;5052674;28;20547;-62
2022/12/28 11:26:32;;;;;;;;;;;10.50;99.90;;;;;;5052007;28;19913;-62
2022/12/28 11:28:59;;;;;;;;;;;10.50;99.90;;;;;;5051739;28;19908;-62
2022/12/28 11:31:28;;;;;;;;;;;10.50;99.90;;;;;;5052006;28;19971;-62
2022/12/28 11:33:56;;;;;;;;;;;10.50;99.90;;;;;;5052014;28;19955;-62
2022/12/28 11:36:23;;;;;;;;;;;10.50;99.90;;;;;;5051636;28;19908;-62
2022/12/28 11:38:50;;;;;;;;;;;10.50;99.90;;;;;;5051957;28;19935;-62
2022/12/28 11:41:22;;;;;;;;;;;10.50;99.90;;;;;;5052029;28;20003;-62
2022/12/28 11:43:49;;;;;;;;;;;10.50;99.90;;;;;;5051782;28;19913;-61
2022/12/28 11:46:20;;;;;;;;;;;10.50;99.90;;;;;;5051781;28;19927;-60
2022/12/28 11:48:56;;;;;;;;;;;10.50;99.90;;;;;;5051368;28;20381;-61
2022/12/28 11:51:28;;;;;;;;;;;10.50;99.90;;;;;;5051628;28;19909;-62
2022/12/28 11:53:58;;;;;;;;;;;10.40;99.90;;;;;;5051665;28;19947;-61
2022/12/28 11:56:46;;;;;;;;;;;10.40;99.90;;;;;;5051389;28;19908;-62
2022/12/28 11:59:18;;;;;;;;;;;10.40;99.90;;;;;;5051195;28;20351;-61
2022/12/28 12:01:44;;;;;;;;;;;10.50;99.90;;;;;;5051684;28;20369;-62
2022/12/28 12:04:29;;;;;;;;;;;10.50;99.90;;;;;;5051391;28;19958;-62
2022/12/28 12:06:57;;;;;;;;;;;10.40;99.90;;;;;;5051454;28;19908;-62
2022/12/28 12:09:23;;;;;;;;;;;10.50;99.90;;;;;;5051125;28;20320;-62
2022/12/28 12:11:51;;;;;;;;;;;10.50;99.90;;;;;;5051295;28;19970;-62
2022/12/28 12:14:22;;;;;;;;;;;10.50;99.90;;;;;;5051593;28;19959;-62
2022/12/28 12:16:48;;;;;;;;;;;10.50;99.90;;;;;;5051227;28;19999;-62
2022/12/28 12:19:20;;;;;;;;;;;10.50;99.90;;;;;;5050985;28;19959;-62
2022/12/28 12:21:53;;;;;;;;;;;10.50;99.90;;;;;;5051257;28;19915;-62
2022/12/28 12:24:26;;;;;;;;;;;10.50;99.90;;;;;;5051201;28;19952;-62
2022/12/28 12:26:54;;;;;;;;;;;10.50;99.90;;;;;;5051183;28;19995;-62
2022/12/28 12:29:27;;;;;;;;;;;10.60;99.90;;;;;;5050922;28;19918;-61
2022/12/28 12:32:01;;;;;;;;;;;10.60;99.90;;;;;;5051152;28;19971;-61
2022/12/28 12:34:44;;;;;;;;;;;10.60;99.90;;;;;;5051037;28;19908;-62
2022/12/28 12:37:18;;;;;;;;;;;10.60;99.90;;;;;;5050818;28;19978;-58
2022/12/28 12:39:55;;;;;;;;;;;10.50;99.90;;;;;;5050461;28;20015;-61
2022/12/28 12:42:29;;;;;;;;;;;10.50;99.90;;;;;;5051060;28;19962;-61
2022/12/28 12:44:56;;;;;;;;;;;10.50;99.90;;;;;;5051040;28;19967;-61
2022/12/28 12:47:37;;;;;;;;;;;10.40;99.90;;;;;;5050640;28;19908;-61
2022/12/28 12:50:03;;;;;;;;;;;10.30;99.90;;;;;;5050811;28;19912;-61
2022/12/28 12:52:39;;;;;;;;;;;10.30;99.90;;;;;;5051017;28;20418;-60
2022/12/28 12:55:14;;;;;;;;;;;10.30;99.90;;;;;;5051054;28;19909;-60
2022/12/28 12:57:57;;;;;;;;;;;10.30;99.90;;;;;;5050490;28;19931;-61
2022/12/28 13:00:27;;;;;;;;;;;10.20;99.90;;;;;;5050681;28;19967;-61
2022/12/28 13:03:11;;;;;;;;;;;10.20;99.90;;;;;;5050842;28;19913;-61
2022/12/28 13:05:39;;;;;;;;;;;10.20;99.90;;;;;;5050721;28;20004;-61
2022/12/28 13:08:05;;;;;;;;;;;10.20;99.90;;;;;;5049131;28;19908;-62
2022/12/28 13:10:32;;;;;;;;;;;10.10;99.90;;;;;;5050422;28;20003;-61
2022/12/28 13:13:00;;;;;;;;;;;10.20;99.90;;;;;;5050845;28;20337;-61
2022/12/28 13:15:26;;;;;;;;;;;10.10;99.90;;;;;;5050738;28;19963;-62
2022/12/28 13:17:58;;;;;;;;;;;10.10;99.90;;;;;;5050512;28;19955;-61
2022/12/28 13:20:23;;;;;;;;;;;10.00;99.90;;;;;;5050870;28;19909;-61
2022/12/28 13:22:49;;;;;;;;;;;10.00;99.90;;;;;;5050456;28;20022;-62
2022/12/28 13:25:27;;;;;;;;;;;10.00;99.90;;;;;;5050580;28;19966;-61
2022/12/28 13:27:53;;;;;;;;;;;10.00;99.90;;;;;;5050324;28;20261;-61
2022/12/28 13:30:20;;;;;;;;;;;10.00;99.90;;;;;;5050252;28;19915;-61
2022/12/28 13:32:53;;;;;;;;;;;10.10;99.90;;;;;;5050589;28;20331;-61
2022/12/28 13:35:20;;;;;;;;;;;10.10;99.90;;;;;;5050430;28;19912;-61
2022/12/28 13:38:04;;;;;;;;;;;10.10;99.90;;;;;;5050186;28;19916;-61
2022/12/28 13:40:31;;;;;;;;;;;10.10;99.90;;;;;;5050240;28;20270;-61
2022/12/28 13:43:08;;;;;;;;;;;10.10;99.90;;;;;;5050362;28;19962;-61
2022/12/28 13:45:34;;;;;;;;;;;10.10;99.90;;;;;;5050704;28;20273;-61
2022/12/28 13:48:00;;;;;;;;;;;10.00;99.90;;;;;;5050069;28;19915;-61
2022/12/28 13:50:28;;;;;;;;;;;10.10;99.90;;;;;;5050361;28;19908;-61
2022/12/28 13:52:59;;;;;;;;;;;10.10;99.90;;;;;;5053017;28;20385;-61
2022/12/28 13:55:29;;;;;;;;;;;10.10;99.90;;;;;;5053994;28;19999;-61
2022/12/28 13:57:57;;;;;;;;;;;10.10;99.90;;;;;;5053588;28;19931;-61
2022/12/28 14:00:23;;;;;;;;;;;10.10;99.90;;;;;;5053495;28;19955;-61
2022/12/28 14:02:50;;;;;;;;;;;10.10;99.90;;;;;;5053638;28;20357;-61
2022/12/28 14:05:17;;;;;;;;;;;10.00;99.90;;;;;;5053805;28;20281;-61
2022/12/28 14:07:43;;;;;;;;;;;10.10;99.90;;;;;;5053359;28;19915;-61
2022/12/28 14:10:10;;;;;;;;;;;10.10;99.90;;;;;;5053373;28;19909;-61
2022/12/28 14:12:36;;;;;;;;;;;10.10;99.90;;;;;;5053542;28;19908;-61
2022/12/28 14:15:02;;;;;;;;;;;10.10;99.90;;;;;;5052302;28;20434;-60
2022/12/28 14:17:28;;;;;;;;;;;10.20;99.90;;;;;;5053625;28;19908;-59
2022/12/28 14:19:54;;;;;;;;;;;10.10;99.90;;;;;;5051981;28;19916;-59
2022/12/28 14:22:24;;;;;;;;;;;10.10;99.90;;;;;;5053491;28;20358;-61
2022/12/28 14:24:59;;;;;;;;;;;10.10;99.90;;;;;;5053248;28;19913;-61
2022/12/28 14:27:25;;;;;;;;;;;10.00;99.90;;;;;;5052952;28;19909;-59
2022/12/28 14:29:50;;;;;;;;;;;10.10;99.90;;;;;;5052926;28;20038;-59
2022/12/28 14:32:16;;;;;;;;;;;10.10;99.90;;;;;;5053348;28;19916;-60
2022/12/28 14:34:41;;;;;;;;;;;10.10;99.90;;;;;;5053177;28;19980;-60
2022/12/28 14:37:19;;;;;;;;;;;10.10;99.90;;;;;;5053010;28;19916;-60
2022/12/28 14:39:45;;;;;;;;;;;10.00;99.90;;;;;;5053175;28;19909;-62
2022/12/28 14:42:18;;;;;;;;;;;10.10;99.90;;;;;;5053205;28;20351;-61
2022/12/28 14:44:44;;;;;;;;;;;10.10;99.90;;;;;;5052837;28;19956;-60
2022/12/28 14:47:28;;;;;;;;;;;10.20;99.90;;;;;;5052806;28;19982;-60
2022/12/28 14:49:58;;;;;;;;;;;10.20;99.90;;;;;;5064035;22;19921;-55
2022/12/28 14:52:23;;;;;;;;;;;10.10;99.90;;;;;;5052851;28;20383;-54
2022/12/28 14:54:49;;;;;;;;;;;10.20;99.90;;;;;;5052729;28;19908;-52
2022/12/28 14:57:18;;;;;;;;;;;10.20;99.90;;;;;;5052642;28;19908;-52
2022/12/28 14:59:45;;;;;;;;;;;10.20;99.90;;;;;;5052434;28;20327;-52